Time;durP1;ratioP1;P1;durP2;ratioP2;P2;SDS_P1;SDS_P2;PMS_P1;PMS_P2;Temp;Humidity;BMP_temperature;BMP_pressure;BME280_temperature;BME280_humidity;BME280_pressure;Samples;Min_cycle;Max_cycle;Signal;HPM_P1;HPM_P2
2021/06/30 00:01:41;;;;;;;5.07;3.28;;;;;;;-146.19;100.00;58918.88;5039588;28;20106;-62
2021/06/30 00:04:15;;;;;;;4.50;3.13;;;;;;;21.88;100.00;95981.63;5054564;28;20446;-63
2021/06/30 00:06:49;;;;;;;10.63;3.50;;;;;;;21.32;100.00;95980.84;5047294;28;20507;-63
2021/06/30 00:09:22;;;;;;;5.07;3.67;;;;;;;21.84;100.00;95990.38;5057551;28;20451;-63
2021/06/30 00:11:56;;;;;;;3.97;3.42;;;;;;;21.14;100.00;95983.53;5060214;28;20059;-63
2021/06/30 00:14:29;;;;;;;3.70;3.30;;;;;;;21.90;100.00;95982.22;5051786;28;20061;-63
2021/06/30 00:17:04;;;;;;;5.00;3.10;;;;;;;21.90;100.00;95984.91;5046329;28;20072;-63
2021/06/30 00:19:38;;;;;;;4.43;3.70;;;;;;;22.27;100.00;95976.78;5057864;28;20084;-63
2021/06/30 00:22:13;;;;;;;3.95;3.53;;;;;;;22.35;100.00;95965.69;5056437;28;20080;-63
2021/06/30 00:24:46;;;;;;;4.55;3.67;;;;;;;21.81;100.00;95972.84;5042512;28;20057;-63
2021/06/30 00:27:19;;;;;;;7.65;3.45;;;;;;;22.80;100.00;95967.84;5056994;28;20060;-63
2021/06/30 00:29:53;;;;;;;5.10;3.65;;;;;;;23.26;100.00;95962.69;5049911;28;20049;-63
2021/06/30 00:32:21;;;;;;;4.85;3.60;;;;;;;22.94;100.00;95961.19;5043194;28;20675;-62
2021/06/30 00:34:54;;;;;;;4.20;3.78;;;;;;;23.66;100.00;95958.13;5037560;28;20072;-63
2021/06/30 00:37:29;;;;;;;3.83;3.17;;;;;;;23.61;100.00;95957.22;5042340;28;20120;-63
2021/06/30 00:40:02;;;;;;;3.55;3.25;;;;;;;22.53;100.00;95959.41;5055570;28;21369;-63
2021/06/30 00:42:37;;;;;;;6.45;3.00;;;;;;;22.73;100.00;95959.88;5042094;28;20057;-63
2021/06/30 00:45:12;;;;;;;3.78;3.13;;;;;;;22.87;100.00;95951.59;5036599;28;20521;-63
2021/06/30 00:47:45;;;;;;;3.47;2.75;;;;;;;23.60;100.00;95948.31;5049773;28;20060;-63
2021/06/30 00:50:14;;;;;;;3.42;3.13;;;;;;;23.19;100.00;95960.97;5053606;28;20084;-63
2021/06/30 00:52:49;;;;;;;5.03;3.53;;;;;;;23.87;100.00;95958.56;5040897;28;20071;-63
2021/06/30 00:55:23;;;;;;;3.95;3.42;;;;;;;22.98;100.00;95956.16;5044760;28;20079;-62
2021/06/30 00:57:57;;;;;;;3.88;3.45;;;;;;;23.22;100.00;95954.25;5034265;28;20057;-63
2021/06/30 01:00:31;;;;;;;4.22;3.60;;;;;;;22.65;100.00;95962.94;5051506;28;20071;-62
2021/06/30 01:03:04;;;;;;;5.88;3.85;;;;;;;21.99;100.00;95961.25;5052611;28;20048;-63
2021/06/30 01:05:38;;;;;;;3.90;3.25;;;;;;;22.69;100.00;95961.41;5046741;28;20056;-63
2021/06/30 01:08:12;;;;;;;5.75;3.35;;;;;;;22.05;100.00;95965.69;5044244;28;20056;-63
2021/06/30 01:10:46;;;;;;;5.88;3.28;;;;;;;23.04;100.00;95957.09;5033486;28;20498;-63
2021/06/30 01:13:19;;;;;;;4.90;3.70;;;;;;;22.65;100.00;95959.44;5069095;28;20079;-62
2021/06/30 01:15:55;;;;;;;7.38;3.60;;;;;;;22.71;100.00;95962.00;5054789;28;20083;-63
2021/06/30 01:18:30;;;;;;;4.30;3.67;;;;;;;22.12;100.00;95976.34;5036811;28;20064;-63
2021/06/30 01:21:06;;;;;;;4.18;3.70;;;;;;;22.08;100.00;95977.84;5051064;28;20073;-63
2021/06/30 01:23:41;;;;;;;4.60;3.72;;;;;;;22.03;100.00;95971.31;5055315;28;20060;-63
2021/06/30 01:26:14;;;;;;;4.30;3.90;;;;;;;22.35;100.00;95979.13;5047714;28;20067;-62
2021/06/30 01:28:48;;;;;;;4.13;3.58;;;;;;;22.31;100.00;95983.31;5059307;28;20083;-62
2021/06/30 01:31:21;;;;;;;3.90;3.50;;;;;;;22.92;100.00;95984.84;5042224;28;20519;-63
2021/06/30 01:33:54;;;;;;;4.22;3.58;;;;;;;22.21;100.00;95983.88;5061296;28;20063;-61
2021/06/30 01:36:28;;;;;;;5.10;3.75;;;;;;;22.35;100.00;95989.88;5045291;28;20064;-62
2021/06/30 01:39:03;;;;;;;6.57;4.07;;;;;;;22.69;100.00;95982.09;5050104;28;20545;-63
2021/06/30 01:41:36;;;;;;;5.47;3.90;;;;;;;22.15;100.00;95978.59;5058252;28;20450;-63
2021/06/30 01:44:09;;;;;;;4.85;3.97;;;;;;;21.87;100.00;95985.38;5051866;28;20056;-63
2021/06/30 01:46:44;;;;;;;4.18;3.78;;;;;;;21.53;100.00;95984.16;5040267;28;20091;-62
2021/06/30 01:49:18;;;;;;;5.43;3.92;;;;;;;21.31;100.00;95989.94;5055954;28;20076;-62
2021/06/30 01:51:51;;;;;;;4.75;3.90;;;;;;;21.95;100.00;95989.59;5057465;28;20103;-62
2021/06/30 01:54:25;;;;;;;4.55;4.00;;;;;;;22.10;100.00;95983.81;5057255;28;20467;-63
2021/06/30 01:56:59;;;;;;;4.32;3.90;;;;;;;21.81;100.00;96000.50;5054596;28;20056;-62
2021/06/30 01:59:32;;;;;;;4.50;3.97;;;;;;;22.07;100.00;96003.06;5055908;28;20072;-63
2021/06/30 02:02:05;;;;;;;5.30;3.67;;;;;;;22.05;100.00;96006.78;5055185;28;20060;-62
2021/06/30 02:04:39;;;;;;;4.80;4.10;;;;;;;22.26;100.00;96010.88;5053423;28;20526;-62
2021/06/30 02:07:12;;;;;;;4.60;4.03;;;;;;;22.47;100.00;96009.53;5060924;28;20490;-62
2021/06/30 02:09:47;;;;;;;6.50;3.88;;;;;;;22.23;100.00;96015.91;5051601;28;20069;-62
2021/06/30 02:12:20;;;;;;;5.75;4.22;;;;;;;21.36;100.00;96018.00;5044882;28;20056;-61
2021/06/30 02:14:54;;;;;;;5.68;3.95;;;;;;;22.00;100.00;96020.09;5052184;28;20064;-63
2021/06/30 02:20:15;;;;;;;4.82;4.25;;;;;;;21.51;100.00;96013.09;5050642;28;20041;-63
2021/06/30 02:22:48;;;;;;;5.13;3.92;;;;;;;21.52;100.00;96006.66;5038675;28;20482;-62
2021/06/30 02:25:25;;;;;;;5.13;4.10;;;;;;;20.94;100.00;96028.47;5040758;28;20107;-62
2021/06/30 02:27:58;;;;;;;6.00;4.00;;;;;;;21.09;100.00;96037.00;5036380;28;20064;-61
2021/06/30 02:30:33;;;;;;;5.13;3.92;;;;;;;21.24;100.00;96034.78;5048990;28;20096;-63
2021/06/30 02:33:06;;;;;;;6.13;3.80;;;;;;;20.64;100.00;96026.47;5056403;28;20525;-63
2021/06/30 02:35:41;;;;;;;6.20;4.13;;;;;;;21.13;100.00;96043.56;5042448;28;20057;-62
2021/06/30 02:38:14;;;;;;;5.00;4.22;;;;;;;20.79;100.00;96040.38;5037548;28;20068;-62
2021/06/30 02:40:49;;;;;;;5.47;3.70;;;;;;;20.79;100.00;96048.41;5057353;28;20080;-62
2021/06/30 02:43:22;;;;;;;5.20;4.22;;;;;;;20.83;100.00;96038.88;5047027;28;20080;-62
2021/06/30 02:45:56;;;;;;;6.07;4.25;;;;;;;20.52;100.00;96045.09;5059108;28;20135;-62
2021/06/30 02:48:29;;;;;;;4.90;4.20;;;;;;;21.09;100.00;96047.72;5044166;28;20064;-62
2021/06/30 02:51:02;;;;;;;6.57;4.30;;;;;;;20.80;100.00;96046.53;5043624;28;20064;-62
2021/06/30 02:53:36;;;;;;;5.07;4.10;;;;;;;21.22;100.00;96055.63;5045549;28;20068;-61
2021/06/30 02:56:11;;;;;;;8.50;3.53;;;;;;;20.27;100.00;96062.97;5044678;28;20056;-62
2021/06/30 02:58:44;;;;;;;3.72;3.33;;;;;;;20.62;100.00;96061.53;5056925;28;20464;-61
2021/06/30 03:01:18;;;;;;;3.17;2.88;;;;;;;20.10;100.00;96062.66;5038144;28;20112;-63
2021/06/30 03:03:51;;;;;;;5.72;3.08;;;;;;;20.53;100.00;96078.06;5050164;28;20467;-61
2021/06/30 03:06:24;;;;;;;3.05;2.70;;;;;;;20.01;100.00;96072.78;5045673;28;20090;-62
2021/06/30 03:08:57;;;;;;;3.53;2.75;;;;;;;20.61;100.00;96072.44;5042911;28;20064;-62
2021/06/30 03:11:32;;;;;;;5.40;3.00;;;;;;;20.61;100.00;96084.00;5035827;28;20071;-63
2021/06/30 03:14:05;;;;;;;2.58;2.38;;;;;;;20.14;100.00;96091.44;5037099;28;20056;-63
2021/06/30 03:16:39;;;;;;;4.07;2.47;;;;;;;20.69;100.00;96100.84;5058525;28;20072;-63
2021/06/30 03:19:08;;;;;;;2.17;2.00;;;;;;;20.76;100.00;96102.44;5057731;28;20064;-63
2021/06/30 03:21:41;;;;;;;2.10;1.90;;;;;;;19.89;100.00;96086.00;5056418;28;20076;-61
2021/06/30 03:24:15;;;;;;;1.95;1.75;;;;;;;20.38;100.00;96087.19;5043784;28;20080;-63
2021/06/30 03:26:50;;;;;;;4.15;1.90;;;;;;;20.45;100.00;96089.84;5047332;28;20488;-63
2021/06/30 03:29:23;;;;;;;1.60;1.50;;;;;;;20.35;100.00;96087.63;5047932;28;20065;-63
2021/06/30 03:31:52;;;;;;;1.77;1.67;;;;;;;20.68;100.00;96091.16;5036609;28;20076;-62
2021/06/30 03:34:44;;;;;;;1.85;1.65;;;;;;;20.10;100.00;96089.41;5035028;28;20626;-63
2021/06/30 03:37:17;;;;;;;3.33;1.52;;;;;;;20.57;100.00;96087.31;5035861;28;20088;-63
2021/06/30 03:39:46;;;;;;;1.33;1.23;;;;;;;19.96;100.00;96102.03;5054909;28;20060;-63
2021/06/30 03:42:20;;;;;;;1.70;1.50;;;;;;;20.92;100.00;96108.28;5046165;28;20066;-64
2021/06/30 03:44:53;;;;;;;1.48;1.38;;;;;;;20.57;100.00;96101.53;5046543;28;20526;-64
2021/06/30 03:47:27;;;;;;;2.47;1.75;;;;;;;20.60;100.00;96097.59;5058068;28;20064;-63
2021/06/30 03:50:00;;;;;;;1.75;1.65;;;;;;;20.45;100.00;96094.38;5058084;28;20440;-63
2021/06/30 03:52:33;;;;;;;1.83;1.67;;;;;;;20.22;100.00;96087.69;5041971;28;20076;-63
2021/06/30 03:55:25;;;;;;;3.72;1.42;;;;;;;19.23;100.00;96088.00;5039935;28;20048;-63
2021/06/30 03:58:00;;;;;;;2.58;1.33;;;;;;;19.36;100.00;96104.03;5053693;28;20059;-62
2021/06/30 04:00:33;;;;;;;1.30;1.20;;;;;;;19.90;100.00;96109.06;5053944;28;20403;-64
2021/06/30 04:03:06;;;;;;;1.38;1.27;;;;;;;20.04;100.00;96109.81;5041737;28;20077;-63
2021/06/30 04:05:40;;;;;;;1.58;1.30;;;;;;;19.93;100.00;96107.81;5040753;28;20052;-63
2021/06/30 04:08:14;;;;;;;2.83;1.40;;;;;;;20.01;100.00;96101.41;5045795;28;20529;-64
2021/06/30 04:10:47;;;;;;;1.20;1.10;;;;;;;19.37;100.00;96103.84;5048278;28;20088;-64
2021/06/30 04:13:21;;;;;;;1.38;1.27;;;;;;;19.86;100.00;96105.16;5047934;28;20073;-64
2021/06/30 04:15:55;;;;;;;1.25;1.17;;;;;;;20.29;100.00;96101.06;5048556;28;20068;-64
2021/06/30 04:18:28;;;;;;;2.53;1.30;;;;;;;20.49;100.00;96109.78;5036272;28;20072;-64
2021/06/30 04:21:01;;;;;;;1.30;1.20;;;;;;;20.08;100.00;96107.53;5053571;28;20060;-64
2021/06/30 04:23:35;;;;;;;1.33;1.23;;;;;;;20.14;100.00;96104.84;5054804;28;20106;-64
2021/06/30 04:26:08;;;;;;;1.45;1.35;;;;;;;19.98;100.00;96108.00;5050216;28;20069;-65
2021/06/30 04:28:42;;;;;;;1.48;1.00;;;;;;;20.44;100.00;96109.63;5031576;28;20085;-64
2021/06/30 04:31:16;;;;;;;1.48;1.20;;;;;;;20.13;100.00;96113.91;5036931;28;20089;-64
2021/06/30 04:33:49;;;;;;;1.20;1.10;;;;;;;20.20;100.00;96103.16;5053266;28;20072;-63
2021/06/30 04:36:22;;;;;;;2.35;1.15;;;;;;;19.88;100.00;96103.09;5045947;28;20057;-64
2021/06/30 04:38:56;;;;;;;1.27;1.13;;;;;;;20.23;100.00;96099.22;5037616;28;20472;-64
2021/06/30 04:41:29;;;;;;;1.27;1.00;;;;;;;20.54;100.00;96091.25;5042481;28;20431;-64
2021/06/30 04:44:04;;;;;;;2.20;1.17;;;;;;;20.53;100.00;96089.59;5042594;28;20060;-64
2021/06/30 04:46:37;;;;;;;1.65;1.13;;;;;;;20.54;100.00;96099.31;5058287;28;20091;-63
2021/06/30 04:49:10;;;;;;;1.63;1.00;;;;;;;19.92;100.00;96098.97;5040236;28;20091;-64
2021/06/30 04:51:44;;;;;;;1.00;1.00;;;;;;;20.63;100.00;96094.47;5054960;28;20032;-65
2021/06/30 04:54:18;;;;;;;1.38;1.08;;;;;;;21.59;100.00;96081.72;5046732;28;20083;-64
2021/06/30 04:56:51;;;;;;;1.38;1.10;;;;;;;20.57;100.00;96085.44;5042337;28;20080;-64
2021/06/30 04:59:26;;;;;;;0.93;0.90;;;;;;;20.59;100.00;96095.97;5037703;28;20064;-64
2021/06/30 05:01:59;;;;;;;1.70;1.10;;;;;;;20.95;100.00;96079.19;5046214;28;20072;-63
2021/06/30 05:04:32;;;;;;;1.20;1.00;;;;;;;20.64;100.00;96090.75;5056469;28;20073;-64
2021/06/30 05:07:05;;;;;;;1.10;1.00;;;;;;;20.41;100.00;96083.28;5054317;28;21314;-63
2021/06/30 05:09:38;;;;;;;1.10;1.00;;;;;;;20.42;100.00;96092.13;5055280;28;20091;-64
2021/06/30 05:12:12;;;;;;;1.40;1.30;;;;;;;21.76;100.00;96080.91;5054530;28;20072;-64
2021/06/30 05:14:46;;;;;;;2.00;1.90;;;;;;;21.84;100.00;96084.31;5048179;28;20055;-65
2021/06/30 05:17:21;;;;;;;1.75;1.65;;;;;;;23.60;100.00;96080.22;5038091;28;20076;-65
2021/06/30 05:19:50;;;;;;;1.75;1.50;;;;;;;23.97;100.00;96084.53;5033123;28;20076;-65
2021/06/30 05:22:23;;;;;;;2.55;1.55;;;;;;;23.51;100.00;96087.03;5059112;28;20099;-64
2021/06/30 05:24:56;;;;;;;1.30;1.20;;;;;;;22.97;100.00;96089.00;5055846;28;20087;-64
2021/06/30 05:27:29;;;;;;;1.20;1.20;;;;;;;25.23;99.59;96092.53;5058713;28;20068;-64
2021/06/30 05:30:05;;;;;;;1.10;1.10;;;;;;;24.64;100.00;96114.44;5058910;28;20529;-64
2021/06/30 05:32:38;;;;;;;0.50;0.50;;;;;;;24.30;100.00;96110.78;5058808;28;20109;-64
2021/06/30 05:35:12;;;;;;;0.50;0.50;;;;;;;22.48;100.00;96123.22;5053669;28;20071;-64
2021/06/30 05:37:46;;;;;;;0.60;0.60;;;;;;;22.13;100.00;96110.41;5054777;28;20049;-65
2021/06/30 05:40:19;;;;;;;0.85;0.70;;;;;;;21.97;100.00;96106.47;5061868;28;20077;-64
2021/06/30 05:42:54;;;;;;;0.80;0.80;;;;;;;20.92;100.00;96102.94;5041484;28;20060;-64
2021/06/30 05:45:25;;;;;;;0.60;0.60;;;;;;;20.85;100.00;96102.97;5033041;28;20076;-64
2021/06/30 05:47:58;;;;;;;0.60;0.60;;;;;;;21.40;100.00;96094.28;5044860;28;20061;-64
2021/06/30 05:50:31;;;;;;;0.60;0.60;;;;;;;21.56;100.00;96091.03;5048136;28;20068;-64
2021/06/30 05:53:04;;;;;;;1.33;0.80;;;;;;;21.81;100.00;96088.25;5043916;28;20068;-65
2021/06/30 05:55:37;;;;;;;1.35;0.63;;;;;;;21.33;100.00;96092.47;5038069;28;20126;-63
2021/06/30 05:58:11;;;;;;;0.80;0.80;;;;;;;21.22;100.00;96092.38;5033727;28;20084;-64
2021/06/30 06:00:45;;;;;;;0.60;0.60;;;;;;;21.09;100.00;96093.28;5031740;28;20065;-63
2021/06/30 06:03:19;;;;;;;0.82;0.68;;;;;;;21.80;100.00;96092.81;5025948;28;20065;-64
2021/06/30 06:05:52;;;;;;;0.70;0.70;;;;;;;20.63;100.00;96097.16;5043767;28;20163;-65
2021/06/30 06:08:25;;;;;;;0.70;0.70;;;;;;;21.89;100.00;96103.28;5049027;28;20637;-64
2021/06/30 06:11:00;;;;;;;0.63;0.63;;;;;;;21.83;100.00;96102.28;5043012;28;20036;-64
2021/06/30 06:13:34;;;;;;;0.70;0.70;;;;;;;22.12;100.00;96113.31;5062352;28;20073;-64
2021/06/30 06:16:04;;;;;;;0.70;0.70;;;;;;;21.97;100.00;96113.69;5061337;28;20320;-64
2021/06/30 06:18:37;;;;;;;0.70;0.70;;;;;;;21.64;100.00;96116.75;5049699;28;20093;-64
2021/06/30 06:21:10;;;;;;;2.47;0.70;;;;;;;22.09;100.00;96111.06;5055956;28;20550;-64
2021/06/30 06:23:44;;;;;;;0.95;0.90;;;;;;;-146.19;100.00;58918.88;5048766;28;20064;-65
2021/06/30 06:26:17;;;;;;;0.70;0.70;;;;;;;-146.19;100.00;58918.88;5044780;28;20060;-64
2021/06/30 06:28:51;;;;;;;1.85;0.70;;;;;;;-146.19;100.00;58918.88;5037195;28;20095;-65
2021/06/30 06:31:28;;;;;;;1.20;0.90;;;;;;;-146.19;100.00;58918.88;5063278;28;20077;-64
2021/06/30 06:34:01;;;;;;;0.60;0.60;;;;;;;22.43;100.00;96099.69;5034334;28;20483;-65
2021/06/30 06:36:34;;;;;;;0.60;0.60;;;;;;;22.46;100.00;96101.91;5052226;28;20091;-64
2021/06/30 06:39:08;;;;;;;0.68;0.60;;;;;;;21.71;100.00;96096.03;5044108;28;20542;-64
2021/06/30 06:41:41;;;;;;;1.08;0.60;;;;;;;21.47;100.00;96101.25;5043023;28;20068;-64
2021/06/30 06:44:14;;;;;;;0.68;0.68;;;;;;;20.80;100.00;96106.31;5036021;28;20069;-64
2021/06/30 06:46:49;;;;;;;0.68;0.68;;;;;;;21.45;100.00;96103.31;5043781;28;20126;-64
2021/06/30 06:49:22;;;;;;;0.80;0.80;;;;;;;21.97;100.00;96103.78;5030611;28;20087;-64
2021/06/30 06:51:58;;;;;;;0.68;0.68;;;;;;;21.97;100.00;96109.16;5050762;28;20530;-65
2021/06/30 06:54:31;;;;;;;1.08;0.70;;;;;;;22.64;100.00;96106.44;5030497;28;20444;-65
2021/06/30 06:57:05;;;;;;;0.85;0.73;;;;;;;23.89;100.00;96105.38;5039078;28;20100;-65
2021/06/30 06:59:38;;;;;;;1.08;0.68;;;;;;;23.50;100.00;96106.09;5042768;28;20068;-65
2021/06/30 07:02:12;;;;;;;1.38;0.60;;;;;;;24.29;100.00;96104.56;5050981;28;20079;-64
2021/06/30 07:04:46;;;;;;;0.70;0.70;;;;;;;23.59;100.00;96107.38;5031025;28;20085;-64
2021/06/30 07:07:19;;;;;;;0.65;0.60;;;;;;;24.17;100.00;96098.41;5057177;28;20076;-65
2021/06/30 07:09:52;;;;;;;0.50;0.50;;;;;;;23.12;100.00;96112.75;5056130;28;20595;-64
2021/06/30 07:12:22;;;;;;;0.60;0.60;;;;;;;24.41;100.00;96101.88;5041566;28;20079;-64
2021/06/30 07:14:57;;;;;;;0.80;0.70;;;;;;;24.27;100.00;96108.56;5044036;28;20068;-65
2021/06/30 07:17:34;;;;;;;0.68;0.68;;;;;;;24.78;97.05;96096.06;5049773;28;20061;-65
2021/06/30 07:20:09;;;;;;;0.73;0.65;;;;;;;22.78;100.00;96108.91;5032723;28;20654;-64
2021/06/30 07:22:42;;;;;;;1.42;0.75;;;;;;;23.74;100.00;96101.53;5028704;28;20081;-64
2021/06/30 07:25:18;;;;;;;0.68;0.68;;;;;;;23.60;100.00;96096.38;5053569;28;20113;-64
2021/06/30 07:27:52;;;;;;;1.27;0.68;;;;;;;23.19;100.00;96102.69;5055590;28;20080;-64
2021/06/30 07:30:25;;;;;;;0.50;0.50;;;;;;;23.17;100.00;96118.25;5045104;28;20127;-64
2021/06/30 07:33:00;;;;;;;0.70;0.70;;;;;;;22.30;100.00;96113.31;5038928;28;20065;-64
2021/06/30 07:35:33;;;;;;;0.70;0.70;;;;;;;21.73;100.00;96102.00;5036896;28;20075;-64
2021/06/30 07:38:07;;;;;;;0.63;0.60;;;;;;;22.56;100.00;96105.94;5034269;28;20064;-63
2021/06/30 07:40:40;;;;;;;0.60;0.60;;;;;;;22.86;100.00;96106.72;5035220;28;20096;-65
2021/06/30 07:43:14;;;;;;;0.60;0.60;;;;;;;22.40;100.00;96096.63;5053932;28;20056;-65
2021/06/30 07:45:42;;;;;;;1.98;0.75;;;;;;;22.74;100.00;96106.69;5037386;28;20069;-65
2021/06/30 07:48:12;;;;;;;0.60;0.60;;;;;;;23.41;100.00;96098.38;5040767;28;20454;-65
2021/06/30 07:50:40;;;;;;;0.60;0.60;;;;;;;23.50;100.00;96087.25;5036006;28;20061;-65
2021/06/30 07:53:09;;;;;;;1.17;0.65;;;;;;;23.56;100.00;96086.31;5042998;28;20511;-65
2021/06/30 07:55:37;;;;;;;0.60;0.60;;;;;;;23.75;100.00;96087.03;5044431;28;20088;-65
2021/06/30 07:58:06;;;;;;;0.68;0.68;;;;;;;22.86;100.00;96093.28;5055924;28;20530;-64
2021/06/30 08:00:34;;;;;;;0.85;0.68;;;;;;;23.50;100.00;96092.63;5047260;28;20088;-65
2021/06/30 08:03:04;;;;;;;0.70;0.70;;;;;;;23.61;97.81;96084.56;5042328;28;20116;-65
2021/06/30 08:05:33;;;;;;;0.55;0.55;;;;;;;24.21;97.94;96090.66;5039926;28;20068;-65
2021/06/30 08:08:02;;;;;;;0.60;0.60;;;;;;;22.85;100.00;96098.88;5041199;28;20080;-65
2021/06/30 08:10:30;;;;;;;0.70;0.70;;;;;;;23.44;95.11;96095.22;5053373;28;20084;-65
2021/06/30 08:12:58;;;;;;;0.70;0.70;;;;;;;23.27;96.39;96090.78;5038299;28;20099;-64
2021/06/30 08:15:27;;;;;;;0.60;0.60;;;;;;;24.21;100.00;96091.47;5037158;28;20136;-66
2021/06/30 08:17:55;;;;;;;0.60;0.60;;;;;;;24.31;85.58;96098.94;5038127;28;20056;-65
2021/06/30 08:20:24;;;;;;;0.70;0.70;;;;;;;24.86;90.40;96082.16;5037995;28;20080;-65
2021/06/30 08:22:53;;;;;;;0.60;0.60;;;;;;;24.51;75.39;96085.88;5036057;28;20108;-65
2021/06/30 08:25:24;;;;;;;1.08;0.77;;;;;;;24.58;87.70;96086.53;5058705;28;20077;-65
2021/06/30 08:27:54;;;;;;;0.68;0.68;;;;;;;23.52;90.39;96099.44;5040996;28;20069;-65
2021/06/30 08:30:22;;;;;;;0.60;0.60;;;;;;;23.95;75.91;96090.16;5046573;28;20057;-64
2021/06/30 08:32:51;;;;;;;1.23;0.70;;;;;;;24.39;86.75;96093.16;5053182;28;20068;-65
2021/06/30 08:35:19;;;;;;;0.60;0.60;;;;;;;23.41;86.15;96098.38;5064922;28;20068;-64
2021/06/30 08:37:48;;;;;;;0.50;0.50;;;;;;;22.86;89.99;96103.22;5061820;28;20537;-65
2021/06/30 08:40:17;;;;;;;1.05;0.60;;;;;;;23.95;86.41;96103.63;5063440;28;20073;-65
2021/06/30 08:42:46;;;;;;;0.63;0.50;;;;;;;24.11;83.97;96110.13;5058377;28;20068;-66
2021/06/30 08:45:14;;;;;;;0.60;0.60;;;;;;;23.36;79.62;96103.63;5052196;28;20462;-65
2021/06/30 08:47:43;;;;;;;0.50;0.50;;;;;;;23.79;76.14;96109.75;5040004;28;20076;-65
2021/06/30 08:50:13;;;;;;;1.42;0.50;;;;;;;23.32;78.79;96118.63;5038091;28;20077;-65
2021/06/30 08:52:42;;;;;;;0.50;0.50;;;;;;;24.15;78.65;96105.91;5044957;28;20084;-65
2021/06/30 08:55:19;;;;;;;0.57;0.57;;;;;;;24.58;70.13;96099.22;5040927;28;20089;-66
2021/06/30 08:57:48;;;;;;;0.75;0.60;;;;;;;24.14;75.90;96094.31;5058079;28;20709;-64
2021/06/30 09:00:18;;;;;;;0.65;0.65;;;;;;;23.41;77.68;96109.16;5057737;28;20474;-65
2021/06/30 09:02:49;;;;;;;0.90;0.60;;;;;;;24.50;77.44;96113.91;5058997;28;20470;-65
2021/06/30 09:08:04;;;;;;;0.50;0.50;;;;;;;25.41;65.68;96107.63;5043541;28;20076;-65
2021/06/30 09:10:35;;;;;;;1.40;0.60;;;;;;;24.29;71.29;96112.63;5063325;28;20100;-66
2021/06/30 09:13:05;;;;;;;1.50;1.10;;;;;;;25.13;66.00;96113.94;5058237;28;20299;-65
2021/06/30 09:15:36;;;;;;;11.50;10.55;;;;;;;23.98;72.13;96107.69;5045719;28;20455;-65
2021/06/30 09:18:21;;;;;;;;;;;;;;;23.81;70.78;96110.31;5042756;28;20052;-65
2021/06/30 09:20:50;;;;;;;3.60;1.60;;;;;;;25.15;70.26;96104.53;5047909;28;20401;-65
2021/06/30 09:23:18;;;;;;;1.60;1.50;;;;;;;24.47;70.28;96108.19;5065876;28;20521;-65
2021/06/30 09:25:48;;;;;;;1.33;0.80;;;;;;;-146.19;100.00;58918.88;5062435;28;20087;-65
2021/06/30 09:28:19;;;;;;;1.40;0.80;;;;;;;23.80;79.64;96125.66;5060792;28;20072;-65
2021/06/30 09:31:01;;;;;;;1.67;1.00;;;;;;;25.12;79.22;96129.31;5057341;28;20151;-65
2021/06/30 09:33:46;;;;;;;2.33;1.20;;;;;;;24.00;74.52;96130.66;5042832;28;20072;-65
2021/06/30 09:36:15;;;;;;;1.98;0.80;;;;;;;23.93;80.31;96132.66;5030261;28;20068;-65
2021/06/30 09:38:44;;;;;;;0.50;0.50;;;;;;;24.66;72.35;96141.13;5040067;28;20064;-65
2021/06/30 09:41:25;;;;;;;0.50;0.50;;;;;;;25.17;68.85;96139.38;5045918;28;20076;-65
2021/06/30 09:44:05;;;;;;;0.60;0.60;;;;;;;24.88;72.45;96134.00;5060765;28;20076;-65
2021/06/30 09:46:35;;;;;;;0.82;0.60;;;;;;;25.12;65.34;96136.56;5059614;28;20080;-65
2021/06/30 09:49:07;;;;;;;0.60;0.60;;;;;;;24.51;65.01;96131.72;5037755;28;20389;-65
2021/06/30 09:51:37;;;;;;;0.93;0.80;;;;;;;25.50;61.83;96131.28;5049777;28;20471;-65
2021/06/30 09:54:07;;;;;;;0.60;0.60;;;;;;;24.74;69.63;96138.03;5048385;28;20067;-65
2021/06/30 09:56:38;;;;;;;0.55;0.55;;;;;;;23.62;65.78;96123.06;5049123;28;20530;-65
2021/06/30 09:59:23;;;;;;;0.60;0.60;;;;;;;23.40;72.00;96138.97;5061284;28;20068;-65
2021/06/30 10:01:55;;;;;;;0.60;0.60;;;;;;;23.81;70.90;96138.06;5058445;28;20091;-64
2021/06/30 10:04:28;;;;;;;0.60;0.60;;;;;;;25.41;57.79;96121.13;5062530;28;20458;-65
2021/06/30 10:07:14;;;;;;;0.80;0.55;;;;;;;24.70;66.07;96126.94;5062219;28;20045;-64
2021/06/30 10:09:59;;;;;;;1.48;0.82;;;;;;;23.71;69.84;96131.63;5059127;28;20456;-65
2021/06/30 10:12:30;;;;;;;2.70;0.80;;;;;;;24.00;71.38;96132.53;5056191;28;20064;-65
2021/06/30 10:15:00;;;;;;;0.60;0.60;;;;;;;23.98;75.14;96116.59;5078298;28;20069;-64
2021/06/30 10:17:29;;;;;;;0.75;0.70;;;;;;;24.46;67.93;96109.22;5049856;28;20068;-65
2021/06/30 10:19:59;;;;;;;0.65;0.65;;;;;;;24.78;68.01;96110.38;5037275;28;20079;-66
2021/06/30 10:22:28;;;;;;;0.80;0.60;;;;;;;25.72;63.29;96107.00;5054549;28;20413;-63
2021/06/30 10:24:57;;;;;;;0.60;0.60;;;;;;;25.26;60.90;96109.03;5048934;28;20068;-64
2021/06/30 10:27:26;;;;;;;1.40;0.80;;;;;;;26.26;60.23;96103.69;5033341;28;20466;-65
2021/06/30 10:30:00;;;;;;;0.50;0.50;;;;;;;24.34;62.48;96101.97;5050295;28;20076;-64
2021/06/30 10:32:29;;;;;;;0.52;0.52;;;;;;;24.71;74.00;96107.00;5054214;28;20065;-64
2021/06/30 10:35:00;;;;;;;0.82;0.60;;;;;;;25.34;63.37;96087.03;5055567;28;20065;-64
2021/06/30 10:37:29;;;;;;;0.50;0.50;;;;;;;24.54;68.13;96095.38;5040400;28;20551;-64
2021/06/30 10:39:59;;;;;;;0.65;0.60;;;;;;;25.71;65.28;96086.47;5054370;28;20581;-64
2021/06/30 10:42:32;;;;;;;2.20;0.60;;;;;;;24.80;66.32;96094.75;5037269;28;20061;-64
2021/06/30 10:45:05;;;;;;;0.52;0.52;;;;;;;23.92;64.73;96077.16;5034064;28;20056;-64
2021/06/30 10:47:46;;;;;;;0.50;0.50;;;;;;;24.29;66.34;96085.69;5041297;28;20060;-65
2021/06/30 10:50:32;;;;;;;0.85;0.70;;;;;;;24.73;63.29;96083.28;5049821;28;20536;-65
2021/06/30 10:53:38;;;;;;;0.70;0.70;;;;;;;25.38;67.37;96103.53;5028450;28;20068;-64
2021/06/30 10:56:10;;;;;;;0.65;0.65;;;;;;;26.32;64.81;96102.63;5042067;28;20079;-66
2021/06/30 10:58:40;;;;;;;1.15;0.60;;;;;;;26.30;61.54;96093.97;5055523;28;20072;-66
2021/06/30 11:01:16;;;;;;;0.70;0.65;;;;;;;26.61;63.07;96089.75;5060479;28;20041;-66
2021/06/30 11:03:54;;;;;;;1.45;0.80;;;;;;;26.39;65.62;96097.03;5056118;28;20087;-66
2021/06/30 11:06:34;;;;;;;0.75;0.75;;;;;;;26.71;56.46;96097.16;5062132;28;20082;-66
2021/06/30 11:09:07;;;;;;;1.13;0.70;;;;;;;26.83;61.51;96102.38;5056525;28;20455;-65
2021/06/30 11:12:02;;;;;;;0.50;0.50;;;;;;;25.05;64.13;96107.88;5052894;28;20478;-66
2021/06/30 11:14:44;;;;;;;0.60;0.50;;;;;;;24.24;64.75;96103.66;5046407;28;20553;-67
2021/06/30 11:17:33;;;;;;;2.55;0.60;;;;;;;25.76;60.96;96091.13;5044221;28;20052;-67
2021/06/30 11:20:01;;;;;;;0.57;0.57;;;;;;;25.30;60.62;96091.28;5035823;28;20064;-67
2021/06/30 11:22:31;;;;;;;0.60;0.60;;;;;;;25.20;59.07;96098.41;5047324;28;20069;-66
2021/06/30 11:25:04;;;;;;;0.60;0.60;;;;;;;27.24;59.69;96108.19;5036294;28;20465;-66
2021/06/30 11:27:38;;;;;;;0.60;0.60;;;;;;;25.31;53.51;96100.19;5054862;28;20068;-66
2021/06/30 11:30:10;;;;;;;0.77;0.60;;;;;;;25.20;55.54;96096.53;5056077;28;20066;-68
2021/06/30 11:32:47;;;;;;;1.20;0.60;;;;;;;25.25;55.85;96101.16;5051382;28;20068;-66
2021/06/30 11:35:25;;;;;;;0.82;0.50;;;;;;;24.33;53.57;96105.75;5035176;28;20071;-64
2021/06/30 11:38:02;;;;;;;0.50;0.50;;;;;;;25.73;56.03;96113.22;5050804;28;20084;-66
2021/06/30 11:40:34;;;;;;;0.77;0.60;;;;;;;25.63;51.65;96107.66;5058252;28;20488;-65
2021/06/30 11:43:11;;;;;;;0.50;0.50;;;;;;;25.80;57.15;96111.19;5029772;28;20418;-65
2021/06/30 11:45:40;;;;;;;1.67;0.60;;;;;;;25.17;62.42;96112.38;5030734;28;20091;-64
2021/06/30 11:48:12;;;;;;;1.95;0.60;;;;;;;26.42;53.49;96105.47;5037065;28;20073;-65
2021/06/30 11:50:50;;;;;;;0.68;0.68;;;;;;;25.42;61.19;96101.16;5051604;28;20064;-65
2021/06/30 11:53:34;;;;;;;2.13;0.73;;;;;;;24.24;65.84;96104.47;5058127;28;20061;-65
2021/06/30 11:56:03;;;;;;;2.55;0.60;;;;;;;24.07;65.21;96093.63;5040831;28;20538;-65
2021/06/30 11:58:48;;;;;;;1.20;0.52;;;;;;;24.19;73.39;96096.31;5040075;28;20087;-65
2021/06/30 12:01:25;;;;;;;0.70;0.70;;;;;;;23.87;69.35;96091.31;5037785;28;20463;-65